createdAt,value
2023-03-27T00:00:25.249Z,85.08
2023-03-27T00:05:47.124Z,84.59
2023-03-27T00:11:09.540Z,84.85
2023-03-27T00:16:31.469Z,84.79
2023-03-27T00:21:53.345Z,85.35
2023-03-27T00:27:15.318Z,85.02
2023-03-27T00:32:37.247Z,84.96
2023-03-27T00:37:59.121Z,85.33
2023-03-27T00:43:23.665Z,85.68
2023-03-27T00:48:50.092Z,85.90
2023-03-27T00:54:15.384Z,86.65
2023-03-27T00:59:40.236Z,86.29
2023-03-27T01:05:02.384Z,87.16
2023-03-27T01:10:47.980Z,89.17
2023-03-27T01:16:52.274Z,90.09
2023-03-27T01:22:38.939Z,89.26
2023-03-27T01:28:31.049Z,89.40
2023-03-27T01:34:30.655Z,89.86
2023-03-27T01:40:00.370Z,90.35
2023-03-27T01:45:51.400Z,90.80
2023-03-27T01:51:28.127Z,90.85
2023-03-27T01:57:00.556Z,92.00
2023-03-27T02:02:29.488Z,92.01
2023-03-27T02:08:01.556Z,91.74
2023-03-27T02:13:29.214Z,92.64
2023-03-27T02:18:59.003Z,93.58
2023-03-27T02:24:20.846Z,94.15
2023-03-27T02:30:00.300Z,93.21
2023-03-27T02:35:48.746Z,93.96
2023-03-27T02:41:37.046Z,95.15
2023-03-27T02:47:01.875Z,96.49
2023-03-27T02:52:28.770Z,97.77
2023-03-27T02:57:57.846Z,98.19
2023-03-27T03:03:28.508Z,97.55
2023-03-27T03:08:50.559Z,98.93
2023-03-27T03:14:12.867Z,98.92
2023-03-27T03:19:34.719Z,100.00
2023-03-27T03:24:56.562Z,100.00
2023-03-27T03:30:18.476Z,99.83
2023-03-27T03:35:40.929Z,100.00
2023-03-27T03:41:02.807Z,100.00
2023-03-27T03:46:24.710Z,100.00
2023-03-27T03:51:46.665Z,100.00
2023-03-27T03:57:08.599Z,100.00
2023-03-27T04:02:30.892Z,100.00
2023-03-27T04:07:52.961Z,100.00
2023-03-27T04:13:14.898Z,100.00
2023-03-27T04:18:36.794Z,100.00
2023-03-27T04:23:58.957Z,100.00
2023-03-27T04:29:20.813Z,100.00
2023-03-27T04:34:42.675Z,100.00
2023-03-27T04:40:04.884Z,100.00
2023-03-27T04:45:26.842Z,100.00
2023-03-27T04:50:49.394Z,100.00
2023-03-27T04:56:11.788Z,100.00
2023-03-27T05:01:33.943Z,100.00
2023-03-27T05:06:57.535Z,100.00
2023-03-27T05:12:20.664Z,99.40
2023-03-27T05:17:44.465Z,96.83
2023-03-27T05:23:06.322Z,89.37
2023-03-27T05:28:29.595Z,84.06
2023-03-27T05:33:52.322Z,92.16
2023-03-27T05:39:14.170Z,96.14
2023-03-27T05:44:36.027Z,96.33
2023-03-27T05:49:58.056Z,94.60
2023-03-27T05:55:19.921Z,95.50
2023-03-27T06:00:42.656Z,95.77
2023-03-27T06:06:09.382Z,98.83
2023-03-27T06:11:31.232Z,98.21
2023-03-27T06:16:53.070Z,98.98
2023-03-27T06:22:14.906Z,98.84
2023-03-27T06:27:36.867Z,99.00
2023-03-27T06:32:59.882Z,95.73
2023-03-27T06:38:21.851Z,92.08
2023-03-27T06:43:43.970Z,90.44
2023-03-27T06:49:05.847Z,89.93
2023-03-27T06:54:27.696Z,83.18
2023-03-27T06:59:50.114Z,84.73
2023-03-27T07:05:12.750Z,77.15
2023-03-27T07:10:35.042Z,81.33
2023-03-27T07:15:56.927Z,81.12
2023-03-27T07:21:18.787Z,80.81
2023-03-27T07:26:40.667Z,75.24
2023-03-27T07:32:07.836Z,66.86
2023-03-27T07:37:30.926Z,65.37
2023-03-27T07:42:53.271Z,56.51
2023-03-27T07:48:15.129Z,52.16
2023-03-27T07:53:37.001Z,50.40
2023-03-27T07:58:59.117Z,52.38
2023-03-27T08:04:21.346Z,51.54
2023-03-27T08:09:43.312Z,53.24
2023-03-27T08:15:06.995Z,49.52
2023-03-27T08:20:28.872Z,47.75
2023-03-27T08:25:50.732Z,49.58
2023-03-27T08:31:15.304Z,49.86
2023-03-27T08:36:37.389Z,50.64
2023-03-27T08:42:02.886Z,54.10
2023-03-27T08:47:34.157Z,55.08
2023-03-27T08:52:56.067Z,57.20
2023-03-27T08:58:20.869Z,60.32
2023-03-27T09:03:51.055Z,60.09
2023-03-27T09:09:31.389Z,59.37
2023-03-27T09:15:05.165Z,58.21
2023-03-27T09:20:34.912Z,55.74
2023-03-27T09:26:01.870Z,57.05
2023-03-27T09:31:28.809Z,57.70
2023-03-27T09:36:51.082Z,57.68
2023-03-27T09:42:21.253Z,56.54
2023-03-27T09:47:48.278Z,57.44
2023-03-27T09:53:16.160Z,58.63
2023-03-27T09:58:42.028Z,59.52
2023-03-27T10:04:18.929Z,56.81
2023-03-27T10:09:40.849Z,58.47
2023-03-27T10:15:06.043Z,58.52
2023-03-27T10:20:28.237Z,59.10
2023-03-27T10:25:52.129Z,57.41
2023-03-27T10:31:36.491Z,54.45
2023-03-27T10:36:59.052Z,55.20
2023-03-27T10:42:21.171Z,54.21
2023-03-27T10:47:47.822Z,53.90
2023-03-27T10:53:12.774Z,55.10
2023-03-27T10:58:54.731Z,51.80
2023-03-27T11:04:25.329Z,51.25
2023-03-27T11:10:14.221Z,48.10
2023-03-27T11:16:25.556Z,48.07
2023-03-27T11:21:53.355Z,52.30
2023-03-27T11:27:22.361Z,50.86
2023-03-27T11:33:04.521Z,51.72
2023-03-27T11:38:32.338Z,48.60
2023-03-27T11:43:54.225Z,48.90
2023-03-27T11:49:34.448Z,47.86
2023-03-27T11:55:04.824Z,48.63
2023-03-27T12:00:36.512Z,47.47
2023-03-27T12:06:26.775Z,47.46
2023-03-27T12:12:00.135Z,45.42
2023-03-27T12:17:57.185Z,45.15
2023-03-27T12:23:30.666Z,45.43
2023-03-27T12:29:24.407Z,46.93
2023-03-27T12:34:51.720Z,46.97
2023-03-27T12:40:40.777Z,46.27
2023-03-27T12:46:13.981Z,45.58
2023-03-27T12:51:54.266Z,46.09
2023-03-27T12:57:21.951Z,45.46
2023-03-27T13:03:13.268Z,44.12
2023-03-27T13:09:13.649Z,43.99
2023-03-27T13:14:45.968Z,44.86
2023-03-27T13:20:36.428Z,44.37
2023-03-27T13:26:18.522Z,44.71
2023-03-27T13:31:46.439Z,45.26
2023-03-27T13:37:11.304Z,47.17
2023-03-27T13:42:41.507Z,47.72
2023-03-27T13:48:28.259Z,48.26
2023-03-27T13:54:37.284Z,48.53
2023-03-27T14:00:19.715Z,48.19
2023-03-27T14:06:09.518Z,48.98
2023-03-27T14:12:00.344Z,49.30
2023-03-27T14:17:44.770Z,50.87
2023-03-27T14:23:19.538Z,53.14
2023-03-27T14:28:41.596Z,53.67
2023-03-27T14:34:13.651Z,53.11
2023-03-27T14:39:37.611Z,55.40
2023-03-27T14:45:19.969Z,57.52
2023-03-27T14:50:42.055Z,60.68
2023-03-27T14:56:08.339Z,60.95
2023-03-27T15:01:30.658Z,65.19
2023-03-27T15:06:52.719Z,63.99
2023-03-27T15:12:14.704Z,67.70
2023-03-27T15:17:36.697Z,67.80
2023-03-27T15:23:23.431Z,68.27
2023-03-27T15:29:09.262Z,67.14
2023-03-27T15:34:40.564Z,67.39
2023-03-27T15:40:03.973Z,65.46
2023-03-27T15:45:36.511Z,65.35
2023-03-27T15:51:11.543Z,64.13
2023-03-27T15:56:42.667Z,63.65
2023-03-27T16:02:13.808Z,63.90
2023-03-27T16:07:38.648Z,63.47
2023-03-27T16:13:02.101Z,63.38
2023-03-27T16:18:35.266Z,64.72
2023-03-27T16:23:57.156Z,65.19
2023-03-27T16:29:19.008Z,65.19
2023-03-27T16:34:40.859Z,66.58
2023-03-27T16:40:02.804Z,67.38
2023-03-27T16:45:25.690Z,68.04
2023-03-27T16:50:47.666Z,68.40
2023-03-27T16:56:10.205Z,67.49
2023-03-27T17:01:32.177Z,68.16
2023-03-27T17:06:54.992Z,67.84
2023-03-27T17:12:17.655Z,65.59
2023-03-27T17:17:39.897Z,63.75
2023-03-27T17:23:02.330Z,64.56
2023-03-27T17:28:24.292Z,64.19
2023-03-27T17:33:46.472Z,63.93
2023-03-27T17:39:08.290Z,64.02
2023-03-27T17:44:30.169Z,63.46
2023-03-27T17:49:52.048Z,64.56
2023-03-27T17:55:13.989Z,65.58
2023-03-27T18:00:37.014Z,65.64
2023-03-27T18:06:03.332Z,65.61
2023-03-27T18:11:25.223Z,66.80
2023-03-27T18:16:47.131Z,66.13
2023-03-27T18:22:09.031Z,63.40
2023-03-27T18:27:30.877Z,62.19
2023-03-27T18:32:52.975Z,61.34
2023-03-27T18:38:14.920Z,60.68
2023-03-27T18:43:37.115Z,60.99
2023-03-27T18:49:00.665Z,62.06
2023-03-27T18:54:25.502Z,61.78
2023-03-27T18:59:48.749Z,62.10
2023-03-27T19:05:11.373Z,61.43
2023-03-27T19:10:37.414Z,62.55
2023-03-27T19:16:00.092Z,61.75
2023-03-27T19:21:22.169Z,62.14
2023-03-27T19:26:44.910Z,62.69
2023-03-27T19:32:06.828Z,61.82
2023-03-27T19:37:28.848Z,61.51
2023-03-27T19:42:50.821Z,61.92
2023-03-27T19:48:12.883Z,62.15
2023-03-27T19:53:34.903Z,62.66
2023-03-27T19:58:56.909Z,62.76
2023-03-27T20:04:18.862Z,63.39
2023-03-27T20:09:40.736Z,63.50
2023-03-27T20:20:29.388Z,63.41
2023-03-27T20:25:51.312Z,61.93
2023-03-27T20:31:13.275Z,62.70
2023-03-27T20:36:35.914Z,62.08
2023-03-27T20:41:57.822Z,62.20
2023-03-27T20:47:19.955Z,62.28
2023-03-27T20:52:43.034Z,62.46
2023-03-27T20:58:04.987Z,60.98
2023-03-27T21:03:26.961Z,60.73
2023-03-27T21:08:48.976Z,60.52
2023-03-27T21:14:11.040Z,60.52
2023-03-27T21:19:32.978Z,60.32
2023-03-27T21:24:54.987Z,60.62
2023-03-27T21:30:17.264Z,60.68
2023-03-27T21:35:41.380Z,60.54
2023-03-27T21:41:04.532Z,60.83
2023-03-27T21:46:26.484Z,60.60
2023-03-27T21:51:48.382Z,60.43
2023-03-27T21:57:10.321Z,60.77
2023-03-27T22:02:32.280Z,60.22
2023-03-27T22:07:54.288Z,60.40
2023-03-27T22:13:16.200Z,60.00
2023-03-27T22:18:38.364Z,60.91
2023-03-27T22:24:00.273Z,60.55
2023-03-27T22:29:22.260Z,60.74
2023-03-27T22:34:44.122Z,60.88
2023-03-27T22:40:07.636Z,61.08
2023-03-27T22:45:29.980Z,61.53
2023-03-27T22:50:56.802Z,61.16
2023-03-27T22:56:18.724Z,61.71
2023-03-27T23:01:40.792Z,61.87
2023-03-27T23:07:02.883Z,61.81
2023-03-27T23:12:24.919Z,62.41
2023-03-27T23:17:46.948Z,62.63
2023-03-27T23:23:08.862Z,63.69
2023-03-27T23:28:33.659Z,63.44
2023-03-27T23:33:55.653Z,64.06
2023-03-27T23:39:17.499Z,64.36
2023-03-27T23:44:39.618Z,63.90
2023-03-27T23:50:01.455Z,64.34
2023-03-27T23:55:23.308Z,64.70
